sensor_id;sensor_type;location;lat;lon;timestamp;temperature;humidity
28839;DHT22;15971;50.772;6.100;2022-09-13T00:00:32;19.00;99.90
28839;DHT22;15971;50.772;6.100;2022-09-13T00:02:57;19.00;99.90
28839;DHT22;15971;50.772;6.100;2022-09-13T00:05:23;19.10;99.90
28839;DHT22;15971;50.772;6.100;2022-09-13T00:07:49;19.10;99.90
28839;DHT22;15971;50.772;6.100;2022-09-13T00:10:15;19.10;99.90
28839;DHT22;15971;50.772;6.100;2022-09-13T00:12:41;19.10;99.90
28839;DHT22;15971;50.772;6.100;2022-09-13T00:15:07;19.20;99.90
28839;DHT22;15971;50.772;6.100;2022-09-13T00:17:33;19.20;99.90
28839;DHT22;15971;50.772;6.100;2022-09-13T00:19:59;19.30;99.90
28839;DHT22;15971;50.772;6.100;2022-09-13T00:22:26;19.20;99.90
28839;DHT22;15971;50.772;6.100;2022-09-13T00:24:51;19.30;99.90
28839;DHT22;15971;50.772;6.100;2022-09-13T00:27:17;19.30;99.90
28839;DHT22;15971;50.772;6.100;2022-09-13T00:29:43;19.40;99.90
28839;DHT22;15971;50.772;6.100;2022-09-13T00:32:08;19.40;99.90
28839;DHT22;15971;50.772;6.100;2022-09-13T00:34:34;19.40;99.90
28839;DHT22;15971;50.772;6.100;2022-09-13T00:36:59;19.50;99.90
28839;DHT22;15971;50.772;6.100;2022-09-13T00:39:25;19.40;99.90
28839;DHT22;15971;50.772;6.100;2022-09-13T00:41:50;19.40;99.90
28839;DHT22;15971;50.772;6.100;2022-09-13T00:47:15;19.50;99.90
28839;DHT22;15971;50.772;6.100;2022-09-13T00:49:44;19.50;99.90
28839;DHT22;15971;50.772;6.100;2022-09-13T00:52:15;19.40;99.90
28839;DHT22;15971;50.772;6.100;2022-09-13T00:54:46;19.50;99.90
28839;DHT22;15971;50.772;6.100;2022-09-13T00:57:13;19.50;99.90
28839;DHT22;15971;50.772;6.100;2022-09-13T00:59:46;19.50;99.90
28839;DHT22;15971;50.772;6.100;2022-09-13T01:02:13;19.60;99.90
28839;DHT22;15971;50.772;6.100;2022-09-13T01:04:40;19.60;99.90
28839;DHT22;15971;50.772;6.100;2022-09-13T01:07:10;19.50;99.90
28839;DHT22;15971;50.772;6.100;2022-09-13T01:09:38;19.50;99.90
28839;DHT22;15971;50.772;6.100;2022-09-13T01:12:10;19.50;99.90
28839;DHT22;15971;50.772;6.100;2022-09-13T01:14:39;19.40;99.90
28839;DHT22;15971;50.772;6.100;2022-09-13T01:17:05;19.20;99.90
28839;DHT22;15971;50.772;6.100;2022-09-13T01:19:30;19.10;99.90
28839;DHT22;15971;50.772;6.100;2022-09-13T01:22:23;19.00;99.90
28839;DHT22;15971;50.772;6.100;2022-09-13T01:30:38;18.80;99.90
28839;DHT22;15971;50.772;6.100;2022-09-13T02:05:08;18.90;99.90
28839;DHT22;15971;50.772;6.100;2022-09-13T02:07:40;18.90;99.90
28839;DHT22;15971;50.772;6.100;2022-09-13T02:10:17;19.10;99.90
28839;DHT22;15971;50.772;6.100;2022-09-13T02:12:46;19.20;99.90
28839;DHT22;15971;50.772;6.100;2022-09-13T02:15:16;19.20;99.90
28839;DHT22;15971;50.772;6.100;2022-09-13T02:17:53;19.20;99.90
28839;DHT22;15971;50.772;6.100;2022-09-13T02:20:25;19.20;99.90
28839;DHT22;15971;50.772;6.100;2022-09-13T02:22:56;19.20;99.90
28839;DHT22;15971;50.772;6.100;2022-09-13T02:25:24;19.20;99.90
28839;DHT22;15971;50.772;6.100;2022-09-13T02:27:54;19.30;99.90
28839;DHT22;15971;50.772;6.100;2022-09-13T02:30:24;19.40;99.90
28839;DHT22;15971;50.772;6.100;2022-09-13T02:33:03;19.40;99.90
28839;DHT22;15971;50.772;6.100;2022-09-13T02:35:39;19.50;99.90
28839;DHT22;15971;50.772;6.100;2022-09-13T02:38:22;19.50;99.90
28839;DHT22;15971;50.772;6.100;2022-09-13T02:40:55;19.60;99.90
28839;DHT22;15971;50.772;6.100;2022-09-13T02:43:28;19.50;99.90
28839;DHT22;15971;50.772;6.100;2022-09-13T02:46:10;19.60;99.90
28839;DHT22;15971;50.772;6.100;2022-09-13T02:54:33;19.50;99.90
28839;DHT22;15971;50.772;6.100;2022-09-13T02:57:09;19.50;99.90
28839;DHT22;15971;50.772;6.100;2022-09-13T02:59:38;19.60;99.90
28839;DHT22;15971;50.772;6.100;2022-09-13T03:02:13;19.50;99.90
28839;DHT22;15971;50.772;6.100;2022-09-13T03:04:40;19.60;99.90
28839;DHT22;15971;50.772;6.100;2022-09-13T03:07:10;19.30;99.90
28839;DHT22;15971;50.772;6.100;2022-09-13T03:15:00;19.40;99.90
28839;DHT22;15971;50.772;6.100;2022-09-13T03:17:59;19.50;99.90
28839;DHT22;15971;50.772;6.100;2022-09-13T03:20:42;19.40;99.90
28839;DHT22;15971;50.772;6.100;2022-09-13T03:29:23;19.60;99.90
28839;DHT22;15971;50.772;6.100;2022-09-13T03:34:58;19.60;99.90
28839;DHT22;15971;50.772;6.100;2022-09-13T03:37:35;19.20;99.90
28839;DHT22;15971;50.772;6.100;2022-09-13T03:40:11;19.30;99.90
28839;DHT22;15971;50.772;6.100;2022-09-13T03:42:55;19.40;99.90
28839;DHT22;15971;50.772;6.100;2022-09-13T03:45:27;19.50;99.90
28839;DHT22;15971;50.772;6.100;2022-09-13T03:47:54;19.10;99.90
28839;DHT22;15971;50.772;6.100;2022-09-13T03:50:22;19.20;99.90
28839;DHT22;15971;50.772;6.100;2022-09-13T03:52:54;19.30;99.90
28839;DHT22;15971;50.772;6.100;2022-09-13T03:55:21;19.40;99.90
28839;DHT22;15971;50.772;6.100;2022-09-13T03:57:47;19.40;99.90
28839;DHT22;15971;50.772;6.100;2022-09-13T04:00:13;19.50;99.90
28839;DHT22;15971;50.772;6.100;2022-09-13T04:02:39;19.50;99.90
28839;DHT22;15971;50.772;6.100;2022-09-13T04:05:05;19.60;99.90
28839;DHT22;15971;50.772;6.100;2022-09-13T04:07:31;19.50;99.90
28839;DHT22;15971;50.772;6.100;2022-09-13T04:09:57;19.50;99.90
28839;DHT22;15971;50.772;6.100;2022-09-13T04:12:23;19.40;99.90
28839;DHT22;15971;50.772;6.100;2022-09-13T04:14:49;19.30;99.90
28839;DHT22;15971;50.772;6.100;2022-09-13T04:17:15;19.40;99.90
28839;DHT22;15971;50.772;6.100;2022-09-13T04:19:41;19.40;99.90
28839;DHT22;15971;50.772;6.100;2022-09-13T04:22:06;19.40;99.90
28839;DHT22;15971;50.772;6.100;2022-09-13T04:24:32;19.50;99.90
28839;DHT22;15971;50.772;6.100;2022-09-13T04:26:58;19.50;99.90
28839;DHT22;15971;50.772;6.100;2022-09-13T04:29:25;19.40;99.90
28839;DHT22;15971;50.772;6.100;2022-09-13T04:31:52;19.50;99.90
28839;DHT22;15971;50.772;6.100;2022-09-13T04:34:18;19.50;99.90
28839;DHT22;15971;50.772;6.100;2022-09-13T04:36:47;19.50;99.90
28839;DHT22;15971;50.772;6.100;2022-09-13T04:39:12;19.60;99.90
28839;DHT22;15971;50.772;6.100;2022-09-13T04:41:40;19.60;99.90
28839;DHT22;15971;50.772;6.100;2022-09-13T04:44:05;19.50;99.90
28839;DHT22;15971;50.772;6.100;2022-09-13T04:46:31;19.50;99.90
28839;DHT22;15971;50.772;6.100;2022-09-13T04:48:57;19.60;99.90
28839;DHT22;15971;50.772;6.100;2022-09-13T04:51:22;19.50;99.90
28839;DHT22;15971;50.772;6.100;2022-09-13T04:53:52;19.50;99.90
28839;DHT22;15971;50.772;6.100;2022-09-13T04:56:20;19.50;99.90
28839;DHT22;15971;50.772;6.100;2022-09-13T04:58:45;19.60;99.90
28839;DHT22;15971;50.772;6.100;2022-09-13T05:01:11;19.60;99.90
28839;DHT22;15971;50.772;6.100;2022-09-13T05:03:37;19.60;99.90
28839;DHT22;15971;50.772;6.100;2022-09-13T05:06:07;19.70;99.90
28839;DHT22;15971;50.772;6.100;2022-09-13T05:08:33;19.70;99.90
28839;DHT22;15971;50.772;6.100;2022-09-13T05:10:59;19.70;99.90
28839;DHT22;15971;50.772;6.100;2022-09-13T05:13:25;19.80;99.90
28839;DHT22;15971;50.772;6.100;2022-09-13T05:15:59;19.90;99.90
28839;DHT22;15971;50.772;6.100;2022-09-13T05:18:29;19.90;99.90
28839;DHT22;15971;50.772;6.100;2022-09-13T05:20:57;19.90;99.90
28839;DHT22;15971;50.772;6.100;2022-09-13T05:23:23;19.90;99.90
28839;DHT22;15971;50.772;6.100;2022-09-13T05:28:18;20.00;99.90
28839;DHT22;15971;50.772;6.100;2022-09-13T05:30:44;20.00;99.90
28839;DHT22;15971;50.772;6.100;2022-09-13T05:33:18;20.00;99.90
28839;DHT22;15971;50.772;6.100;2022-09-13T05:35:43;20.00;99.90
28839;DHT22;15971;50.772;6.100;2022-09-13T05:38:09;20.00;99.90
28839;DHT22;15971;50.772;6.100;2022-09-13T05:40:34;20.10;99.90
28839;DHT22;15971;50.772;6.100;2022-09-13T05:43:00;20.10;99.90
28839;DHT22;15971;50.772;6.100;2022-09-13T05:45:26;20.10;99.90
28839;DHT22;15971;50.772;6.100;2022-09-13T05:47:51;20.10;99.90
28839;DHT22;15971;50.772;6.100;2022-09-13T05:50:17;20.10;99.90
28839;DHT22;15971;50.772;6.100;2022-09-13T05:52:42;20.10;99.90
28839;DHT22;15971;50.772;6.100;2022-09-13T05:55:08;20.20;99.90
28839;DHT22;15971;50.772;6.100;2022-09-13T05:57:35;20.30;99.90
28839;DHT22;15971;50.772;6.100;2022-09-13T06:00:02;20.30;99.90
28839;DHT22;15971;50.772;6.100;2022-09-13T06:02:30;20.30;99.90
28839;DHT22;15971;50.772;6.100;2022-09-13T06:04:55;20.30;99.90
28839;DHT22;15971;50.772;6.100;2022-09-13T06:07:21;20.40;99.90
28839;DHT22;15971;50.772;6.100;2022-09-13T06:09:46;20.50;99.90
28839;DHT22;15971;50.772;6.100;2022-09-13T06:12:12;20.50;99.90
28839;DHT22;15971;50.772;6.100;2022-09-13T06:14:37;20.60;99.90
28839;DHT22;15971;50.772;6.100;2022-09-13T06:17:03;20.70;99.90
28839;DHT22;15971;50.772;6.100;2022-09-13T06:19:29;20.80;99.90
28839;DHT22;15971;50.772;6.100;2022-09-13T06:21:54;20.80;99.90
28839;DHT22;15971;50.772;6.100;2022-09-13T06:24:20;20.90;99.90
28839;DHT22;15971;50.772;6.100;2022-09-13T06:26:45;20.90;99.90
28839;DHT22;15971;50.772;6.100;2022-09-13T06:29:11;21.00;99.90
28839;DHT22;15971;50.772;6.100;2022-09-13T06:31:37;20.90;99.90
28839;DHT22;15971;50.772;6.100;2022-09-13T06:34:10;20.90;99.90
28839;DHT22;15971;50.772;6.100;2022-09-13T06:36:39;21.00;99.90
28839;DHT22;15971;50.772;6.100;2022-09-13T06:39:05;21.10;99.90
28839;DHT22;15971;50.772;6.100;2022-09-13T06:41:31;21.00;99.90
28839;DHT22;15971;50.772;6.100;2022-09-13T06:43:58;21.20;99.90
28839;DHT22;15971;50.772;6.100;2022-09-13T06:46:29;21.30;99.90
28839;DHT22;15971;50.772;6.100;2022-09-13T06:48:58;21.20;99.90
28839;DHT22;15971;50.772;6.100;2022-09-13T06:51:24;21.30;99.90
28839;DHT22;15971;50.772;6.100;2022-09-13T06:53:52;21.40;99.90
28839;DHT22;15971;50.772;6.100;2022-09-13T06:56:18;21.40;99.90
28839;DHT22;15971;50.772;6.100;2022-09-13T06:58:46;21.40;99.90
28839;DHT22;15971;50.772;6.100;2022-09-13T07:01:20;21.50;99.90
28839;DHT22;15971;50.772;6.100;2022-09-13T07:03:51;21.50;99.90
28839;DHT22;15971;50.772;6.100;2022-09-13T07:06:28;21.50;99.90
28839;DHT22;15971;50.772;6.100;2022-09-13T07:08:55;21.50;99.90
28839;DHT22;15971;50.772;6.100;2022-09-13T07:11:23;21.50;99.90
28839;DHT22;15971;50.772;6.100;2022-09-13T07:13:50;21.50;99.90
28839;DHT22;15971;50.772;6.100;2022-09-13T07:16:17;21.50;99.90
28839;DHT22;15971;50.772;6.100;2022-09-13T07:18:43;21.60;99.60
28839;DHT22;15971;50.772;6.100;2022-09-13T07:21:10;21.70;99.80
28839;DHT22;15971;50.772;6.100;2022-09-13T07:23:37;21.70;99.70
28839;DHT22;15971;50.772;6.100;2022-09-13T07:26:05;21.80;99.70
28839;DHT22;15971;50.772;6.100;2022-09-13T07:28:36;21.80;99.40
28839;DHT22;15971;50.772;6.100;2022-09-13T07:31:09;21.80;99.60
28839;DHT22;15971;50.772;6.100;2022-09-13T07:33:36;21.70;99.90
28839;DHT22;15971;50.772;6.100;2022-09-13T07:36:03;21.90;99.80
28839;DHT22;15971;50.772;6.100;2022-09-13T07:38:32;22.10;99.50
28839;DHT22;15971;50.772;6.100;2022-09-13T07:40:58;22.20;99.70
28839;DHT22;15971;50.772;6.100;2022-09-13T07:43:27;22.30;99.50
28839;DHT22;15971;50.772;6.100;2022-09-13T07:46:04;22.20;99.70
28839;DHT22;15971;50.772;6.100;2022-09-13T07:48:31;22.40;99.50
28839;DHT22;15971;50.772;6.100;2022-09-13T07:51:00;22.50;99.40
28839;DHT22;15971;50.772;6.100;2022-09-13T07:53:26;22.50;99.40
28839;DHT22;15971;50.772;6.100;2022-09-13T07:55:52;22.70;99.50
28839;DHT22;15971;50.772;6.100;2022-09-13T07:58:18;22.90;99.40
28839;DHT22;15971;50.772;6.100;2022-09-13T08:00:44;23.00;99.00
28839;DHT22;15971;50.772;6.100;2022-09-13T08:03:10;23.00;99.30
28839;DHT22;15971;50.772;6.100;2022-09-13T08:05:40;23.20;99.00
28839;DHT22;15971;50.772;6.100;2022-09-13T08:08:05;23.20;99.10
28839;DHT22;15971;50.772;6.100;2022-09-13T08:10:32;23.50;98.90
28839;DHT22;15971;50.772;6.100;2022-09-13T08:12:58;23.70;98.60
28839;DHT22;15971;50.772;6.100;2022-09-13T08:15:23;23.90;98.20
28839;DHT22;15971;50.772;6.100;2022-09-13T08:17:49;23.80;98.40
28839;DHT22;15971;50.772;6.100;2022-09-13T08:20:15;23.60;98.60
28839;DHT22;15971;50.772;6.100;2022-09-13T08:22:40;23.60;98.60
28839;DHT22;15971;50.772;6.100;2022-09-13T08:25:06;23.50;98.60
28839;DHT22;15971;50.772;6.100;2022-09-13T08:27:32;23.60;98.70
28839;DHT22;15971;50.772;6.100;2022-09-13T08:29:57;23.40;98.70
28839;DHT22;15971;50.772;6.100;2022-09-13T08:32:23;23.30;98.90
28839;DHT22;15971;50.772;6.100;2022-09-13T08:34:48;23.20;99.20
28839;DHT22;15971;50.772;6.100;2022-09-13T08:37:14;23.00;99.60
28839;DHT22;15971;50.772;6.100;2022-09-13T08:39:40;23.00;99.80
28839;DHT22;15971;50.772;6.100;2022-09-13T08:42:30;23.10;99.50
28839;DHT22;15971;50.772;6.100;2022-09-13T08:45:01;23.20;99.60
28839;DHT22;15971;50.772;6.100;2022-09-13T08:47:45;23.30;99.70
28839;DHT22;15971;50.772;6.100;2022-09-13T08:50:28;23.40;99.90
28839;DHT22;15971;50.772;6.100;2022-09-13T08:53:06;23.60;99.30
28839;DHT22;15971;50.772;6.100;2022-09-13T08:55:50;23.90;98.90
28839;DHT22;15971;50.772;6.100;2022-09-13T09:01:21;24.10;99.00
28839;DHT22;15971;50.772;6.100;2022-09-13T09:06:23;24.50;98.30
28839;DHT22;15971;50.772;6.100;2022-09-13T09:09:07;24.40;98.20
28839;DHT22;15971;50.772;6.100;2022-09-13T09:12:17;24.40;98.60
28839;DHT22;15971;50.772;6.100;2022-09-13T09:14:57;24.20;97.60
28839;DHT22;15971;50.772;6.100;2022-09-13T09:17:41;23.80;98.00
28839;DHT22;15971;50.772;6.100;2022-09-13T09:22:45;24.00;98.40
28839;DHT22;15971;50.772;6.100;2022-09-13T09:25:11;24.10;97.80
28839;DHT22;15971;50.772;6.100;2022-09-13T09:27:37;24.30;98.00
28839;DHT22;15971;50.772;6.100;2022-09-13T09:30:03;24.30;97.70
28839;DHT22;15971;50.772;6.100;2022-09-13T09:41:21;23.50;99.10
28839;DHT22;15971;50.772;6.100;2022-09-13T09:46:25;23.80;98.90
28839;DHT22;15971;50.772;6.100;2022-09-13T09:48:55;23.70;98.60
28839;DHT22;15971;50.772;6.100;2022-09-13T09:51:22;23.70;98.90
28839;DHT22;15971;50.772;6.100;2022-09-13T09:53:53;23.80;99.00
28839;DHT22;15971;50.772;6.100;2022-09-13T09:56:26;24.00;99.30
28839;DHT22;15971;50.772;6.100;2022-09-13T09:58:53;24.10;99.30
28839;DHT22;15971;50.772;6.100;2022-09-13T10:01:34;23.90;99.40
28839;DHT22;15971;50.772;6.100;2022-09-13T10:04:06;24.20;99.10
28839;DHT22;15971;50.772;6.100;2022-09-13T10:06:34;24.40;98.90
28839;DHT22;15971;50.772;6.100;2022-09-13T10:09:04;24.60;98.60
28839;DHT22;15971;50.772;6.100;2022-09-13T10:17:12;25.20;97.50
28839;DHT22;15971;50.772;6.100;2022-09-13T10:19:40;25.40;96.80
28839;DHT22;15971;50.772;6.100;2022-09-13T10:22:12;25.60;96.40
28839;DHT22;15971;50.772;6.100;2022-09-13T10:24:38;25.70;96.40
28839;DHT22;15971;50.772;6.100;2022-09-13T10:27:22;25.70;95.80
28839;DHT22;15971;50.772;6.100;2022-09-13T10:29:51;25.80;95.70
28839;DHT22;15971;50.772;6.100;2022-09-13T10:32:20;26.00;95.60
28839;DHT22;15971;50.772;6.100;2022-09-13T10:34:46;26.00;95.70
28839;DHT22;15971;50.772;6.100;2022-09-13T10:37:18;26.40;95.10
28839;DHT22;15971;50.772;6.100;2022-09-13T10:40:07;26.60;95.00
28839;DHT22;15971;50.772;6.100;2022-09-13T10:42:34;27.00;93.70
28839;DHT22;15971;50.772;6.100;2022-09-13T10:45:05;27.10;94.00
28839;DHT22;15971;50.772;6.100;2022-09-13T10:47:45;27.30;93.50
28839;DHT22;15971;50.772;6.100;2022-09-13T10:52:50;27.60;92.90
28839;DHT22;15971;50.772;6.100;2022-09-13T10:57:46;27.80;92.90
28839;DHT22;15971;50.772;6.100;2022-09-13T11:00:22;27.00;93.60
28839;DHT22;15971;50.772;6.100;2022-09-13T11:11:47;27.40;92.10
28839;DHT22;15971;50.772;6.100;2022-09-13T11:14:29;27.40;92.20
28839;DHT22;15971;50.772;6.100;2022-09-13T11:19:48;27.60;92.00
28839;DHT22;15971;50.772;6.100;2022-09-13T11:30:41;27.40;91.70
28839;DHT22;15971;50.772;6.100;2022-09-13T11:33:25;27.00;92.30
28839;DHT22;15971;50.772;6.100;2022-09-13T11:52:49;27.00;92.20
28839;DHT22;15971;50.772;6.100;2022-09-13T11:55:25;27.20;92.00
28839;DHT22;15971;50.772;6.100;2022-09-13T11:58:04;27.00;92.40
28839;DHT22;15971;50.772;6.100;2022-09-13T12:03:24;27.20;92.20
28839;DHT22;15971;50.772;6.100;2022-09-13T12:05:54;27.10;92.40
28839;DHT22;15971;50.772;6.100;2022-09-13T12:08:25;27.30;93.00
28839;DHT22;15971;50.772;6.100;2022-09-13T12:11:02;27.20;92.40
28839;DHT22;15971;50.772;6.100;2022-09-13T12:13:34;27.30;92.70
28839;DHT22;15971;50.772;6.100;2022-09-13T12:16:09;27.40;91.80
28839;DHT22;15971;50.772;6.100;2022-09-13T12:18:40;27.20;92.00
28839;DHT22;15971;50.772;6.100;2022-09-13T12:21:10;27.20;92.60
28839;DHT22;15971;50.772;6.100;2022-09-13T12:23:50;27.10;92.90
28839;DHT22;15971;50.772;6.100;2022-09-13T12:26:19;27.10;92.20
28839;DHT22;15971;50.772;6.100;2022-09-13T12:28:58;27.20;91.80
28839;DHT22;15971;50.772;6.100;2022-09-13T12:31:27;27.50;91.70
28839;DHT22;15971;50.772;6.100;2022-09-13T12:33:53;27.80;91.70
28839;DHT22;15971;50.772;6.100;2022-09-13T12:48:07;27.50;91.60
28839;DHT22;15971;50.772;6.100;2022-09-13T13:01:34;27.40;90.60
28839;DHT22;15971;50.772;6.100;2022-09-13T13:04:07;27.50;90.40
28839;DHT22;15971;50.772;6.100;2022-09-13T13:06:52;27.20;89.70
28839;DHT22;15971;50.772;6.100;2022-09-13T13:09:23;27.10;90.70
28839;DHT22;15971;50.772;6.100;2022-09-13T13:11:49;27.40;90.70
28839;DHT22;15971;50.772;6.100;2022-09-13T13:14:43;27.40;90.20
28839;DHT22;15971;50.772;6.100;2022-09-13T13:34:24;27.40;90.40
28839;DHT22;15971;50.772;6.100;2022-09-13T13:39:44;27.70;90.10
28839;DHT22;15971;50.772;6.100;2022-09-13T13:42:21;27.80;90.00
28839;DHT22;15971;50.772;6.100;2022-09-13T13:49:49;27.60;89.70
28839;DHT22;15971;50.772;6.100;2022-09-13T14:02:28;27.00;89.90
28839;DHT22;15971;50.772;6.100;2022-09-13T14:08:19;27.00;90.10
28839;DHT22;15971;50.772;6.100;2022-09-13T14:14:01;26.70;90.20
28839;DHT22;15971;50.772;6.100;2022-09-13T14:19:50;26.60;90.70
28839;DHT22;15971;50.772;6.100;2022-09-13T14:24:50;26.40;91.70
28839;DHT22;15971;50.772;6.100;2022-09-13T14:27:26;26.40;91.90
28839;DHT22;15971;50.772;6.100;2022-09-13T14:30:01;26.20;92.40
28839;DHT22;15971;50.772;6.100;2022-09-13T14:32:31;25.80;93.00
28839;DHT22;15971;50.772;6.100;2022-09-13T14:35:06;25.70;92.90
28839;DHT22;15971;50.772;6.100;2022-09-13T14:37:46;25.70;92.80
28839;DHT22;15971;50.772;6.100;2022-09-13T14:40:19;25.80;92.80
28839;DHT22;15971;50.772;6.100;2022-09-13T14:42:47;25.90;92.80
28839;DHT22;15971;50.772;6.100;2022-09-13T14:45:26;26.00;92.80
28839;DHT22;15971;50.772;6.100;2022-09-13T14:48:04;25.90;92.70
28839;DHT22;15971;50.772;6.100;2022-09-13T14:50:51;25.80;92.80
28839;DHT22;15971;50.772;6.100;2022-09-13T14:53:23;25.60;93.00
28839;DHT22;15971;50.772;6.100;2022-09-13T14:56:05;25.50;93.50
28839;DHT22;15971;50.772;6.100;2022-09-13T14:58:45;25.40;93.80
28839;DHT22;15971;50.772;6.100;2022-09-13T15:01:14;25.10;94.20
28839;DHT22;15971;50.772;6.100;2022-09-13T15:03:42;25.20;94.40
28839;DHT22;15971;50.772;6.100;2022-09-13T15:06:23;25.00;94.90
28839;DHT22;15971;50.772;6.100;2022-09-13T15:08:50;25.00;94.90
28839;DHT22;15971;50.772;6.100;2022-09-13T15:11:30;25.10;95.20
28839;DHT22;15971;50.772;6.100;2022-09-13T15:14:25;25.00;95.20
28839;DHT22;15971;50.772;6.100;2022-09-13T15:16:56;25.00;95.40
28839;DHT22;15971;50.772;6.100;2022-09-13T15:21:48;24.70;95.80
28839;DHT22;15971;50.772;6.100;2022-09-13T15:24:34;24.60;96.10
28839;DHT22;15971;50.772;6.100;2022-09-13T15:27:05;24.60;96.70
28839;DHT22;15971;50.772;6.100;2022-09-13T15:29:32;24.40;97.10
28839;DHT22;15971;50.772;6.100;2022-09-13T15:32:00;24.40;97.60
28839;DHT22;15971;50.772;6.100;2022-09-13T15:34:26;24.40;98.40
28839;DHT22;15971;50.772;6.100;2022-09-13T15:39:41;24.40;98.70
28839;DHT22;15971;50.772;6.100;2022-09-13T15:42:07;24.40;99.00
28839;DHT22;15971;50.772;6.100;2022-09-13T15:44:33;24.30;98.90
28839;DHT22;15971;50.772;6.100;2022-09-13T15:47:00;24.20;99.30
28839;DHT22;15971;50.772;6.100;2022-09-13T15:49:29;24.10;99.70
28839;DHT22;15971;50.772;6.100;2022-09-13T15:52:00;23.90;99.90
28839;DHT22;15971;50.772;6.100;2022-09-13T15:56:59;23.90;99.90
28839;DHT22;15971;50.772;6.100;2022-09-13T15:59:24;23.60;99.90
28839;DHT22;15971;50.772;6.100;2022-09-13T16:01:51;23.40;99.90
28839;DHT22;15971;50.772;6.100;2022-09-13T16:04:17;23.30;99.90
28839;DHT22;15971;50.772;6.100;2022-09-13T16:06:43;23.20;99.90
28839;DHT22;15971;50.772;6.100;2022-09-13T16:09:27;23.10;99.90
28839;DHT22;15971;50.772;6.100;2022-09-13T16:11:53;22.90;99.90
28839;DHT22;15971;50.772;6.100;2022-09-13T16:14:18;22.80;99.90
28839;DHT22;15971;50.772;6.100;2022-09-13T16:16:45;22.90;99.90
28839;DHT22;15971;50.772;6.100;2022-09-13T16:19:22;22.70;99.90
28839;DHT22;15971;50.772;6.100;2022-09-13T16:21:48;22.70;99.90
28839;DHT22;15971;50.772;6.100;2022-09-13T16:24:15;22.70;99.90
28839;DHT22;15971;50.772;6.100;2022-09-13T16:26:41;22.50;99.90
28839;DHT22;15971;50.772;6.100;2022-09-13T16:29:09;22.50;99.90
28839;DHT22;15971;50.772;6.100;2022-09-13T16:31:35;22.50;99.90
28839;DHT22;15971;50.772;6.100;2022-09-13T16:34:01;22.50;99.90
28839;DHT22;15971;50.772;6.100;2022-09-13T16:36:27;22.60;99.90
28839;DHT22;15971;50.772;6.100;2022-09-13T16:38:56;22.60;99.90
28839;DHT22;15971;50.772;6.100;2022-09-13T16:41:22;22.40;99.90
28839;DHT22;15971;50.772;6.100;2022-09-13T16:43:48;22.40;99.90
28839;DHT22;15971;50.772;6.100;2022-09-13T16:46:14;22.40;99.90
28839;DHT22;15971;50.772;6.100;2022-09-13T16:48:40;22.40;99.90
28839;DHT22;15971;50.772;6.100;2022-09-13T16:51:07;22.40;99.90
28839;DHT22;15971;50.772;6.100;2022-09-13T16:53:36;22.30;99.90
28839;DHT22;15971;50.772;6.100;2022-09-13T16:56:14;22.30;99.90
28839;DHT22;15971;50.772;6.100;2022-09-13T16:58:42;22.30;99.90
28839;DHT22;15971;50.772;6.100;2022-09-13T17:01:11;22.30;99.90
28839;DHT22;15971;50.772;6.100;2022-09-13T17:03:37;22.20;99.90
28839;DHT22;15971;50.772;6.100;2022-09-13T17:06:05;22.10;99.90
28839;DHT22;15971;50.772;6.100;2022-09-13T17:08:32;21.90;99.90
28839;DHT22;15971;50.772;6.100;2022-09-13T17:10:59;21.80;99.90
28839;DHT22;15971;50.772;6.100;2022-09-13T17:13:25;21.80;99.90
28839;DHT22;15971;50.772;6.100;2022-09-13T17:15:51;21.80;99.90
28839;DHT22;15971;50.772;6.100;2022-09-13T17:18:17;21.80;99.90
28839;DHT22;15971;50.772;6.100;2022-09-13T17:20:46;21.80;99.90
28839;DHT22;15971;50.772;6.100;2022-09-13T17:23:13;21.70;99.90
28839;DHT22;15971;50.772;6.100;2022-09-13T17:25:44;21.60;99.90
28839;DHT22;15971;50.772;6.100;2022-09-13T17:28:11;21.40;99.90
28839;DHT22;15971;50.772;6.100;2022-09-13T17:30:37;21.50;99.90
28839;DHT22;15971;50.772;6.100;2022-09-13T17:33:03;21.50;99.90
28839;DHT22;15971;50.772;6.100;2022-09-13T17:35:31;21.30;99.90
28839;DHT22;15971;50.772;6.100;2022-09-13T17:37:57;21.10;99.90
28839;DHT22;15971;50.772;6.100;2022-09-13T17:40:25;21.00;99.90
28839;DHT22;15971;50.772;6.100;2022-09-13T17:42:51;20.80;99.90
28839;DHT22;15971;50.772;6.100;2022-09-13T17:45:17;20.70;99.90
28839;DHT22;15971;50.772;6.100;2022-09-13T17:47:43;20.70;99.90
28839;DHT22;15971;50.772;6.100;2022-09-13T17:50:09;20.70;99.90
28839;DHT22;15971;50.772;6.100;2022-09-13T17:52:34;20.60;99.90
28839;DHT22;15971;50.772;6.100;2022-09-13T17:55:00;20.50;99.90
28839;DHT22;15971;50.772;6.100;2022-09-13T17:57:26;20.50;99.90
28839;DHT22;15971;50.772;6.100;2022-09-13T17:59:52;20.40;99.90
28839;DHT22;15971;50.772;6.100;2022-09-13T18:02:19;20.50;99.90
28839;DHT22;15971;50.772;6.100;2022-09-13T18:04:46;20.60;99.90
28839;DHT22;15971;50.772;6.100;2022-09-13T18:07:12;20.70;99.90
28839;DHT22;15971;50.772;6.100;2022-09-13T18:09:37;20.80;99.90
28839;DHT22;15971;50.772;6.100;2022-09-13T18:12:05;20.80;99.90
28839;DHT22;15971;50.772;6.100;2022-09-13T18:14:30;20.80;99.90
28839;DHT22;15971;50.772;6.100;2022-09-13T18:16:57;20.60;99.90
28839;DHT22;15971;50.772;6.100;2022-09-13T18:19:23;20.50;99.90
28839;DHT22;15971;50.772;6.100;2022-09-13T18:21:49;20.50;99.90
28839;DHT22;15971;50.772;6.100;2022-09-13T18:24:14;20.40;99.90
28839;DHT22;15971;50.772;6.100;2022-09-13T18:26:40;20.40;99.90
28839;DHT22;15971;50.772;6.100;2022-09-13T18:29:09;20.30;99.90
28839;DHT22;15971;50.772;6.100;2022-09-13T18:31:35;20.30;99.90
28839;DHT22;15971;50.772;6.100;2022-09-13T18:34:06;20.30;99.90
28839;DHT22;15971;50.772;6.100;2022-09-13T18:36:33;20.40;99.90
28839;DHT22;15971;50.772;6.100;2022-09-13T18:38:59;20.40;99.90
28839;DHT22;15971;50.772;6.100;2022-09-13T18:41:31;20.50;99.90
28839;DHT22;15971;50.772;6.100;2022-09-13T18:43:57;20.60;99.90
28839;DHT22;15971;50.772;6.100;2022-09-13T18:46:26;20.60;99.90
28839;DHT22;15971;50.772;6.100;2022-09-13T18:48:54;20.50;99.90
28839;DHT22;15971;50.772;6.100;2022-09-13T18:51:24;20.30;99.90
28839;DHT22;15971;50.772;6.100;2022-09-13T18:53:50;20.10;99.90
28839;DHT22;15971;50.772;6.100;2022-09-13T18:56:18;20.10;99.90
28839;DHT22;15971;50.772;6.100;2022-09-13T18:58:44;20.10;99.90
28839;DHT22;15971;50.772;6.100;2022-09-13T19:01:15;20.10;99.90
28839;DHT22;15971;50.772;6.100;2022-09-13T19:06:26;20.00;99.90
28839;DHT22;15971;50.772;6.100;2022-09-13T19:08:54;20.00;99.90
28839;DHT22;15971;50.772;6.100;2022-09-13T19:11:21;20.00;99.90
28839;DHT22;15971;50.772;6.100;2022-09-13T19:13:47;20.00;99.90
28839;DHT22;15971;50.772;6.100;2022-09-13T19:16:14;20.00;99.90
28839;DHT22;15971;50.772;6.100;2022-09-13T19:18:43;20.00;99.90